Aeroporto :
LOGIN :

Iscrizione | Disclaimer

   EN    FR    IT 

 










Sommario :    VFR   VFR Marginale   IFR   IFR Intensivo   IFR Molto Intensivo
Visibilità : 
Base nubi : 
>= 8 km
>= 3000ft
5 / 8 km
1000 / 3000 ft
1500m / 5 km
500 / 1000 ft
800 / 1500m
200 / 500 ft
< 800m
< 200 ft
Simboli :   Temporali  Nebbia  Neve Forte  Precipitazioni Forti  Vento > 20 kt
SIGMETs :   Varie  Temporali  Ghiacco  Turbolenza  Onda orograficha  Ceneri Vulcaniche






- Altitudine del aeroporto : 963 ft
- Codice IATA : TGM


LRTM - Transilvania Târgu Mureş Int.

ULTIMO METAR :
  • 230130Z AUTO 08004KT 9999 NCD 17/15 Q1014

METARs OBSOLETI :
  • 230100Z AUTO 09003KT 9999 NCD 17/16 Q1014
  • 230030Z AUTO 09004KT 9999 NCD 18/17 Q1014
  • 230000Z AUTO 07004KT 9999 NCD 18/17 Q1014
  • 222330Z AUTO 06005KT 9999 NCD 18/17 Q1014
  • 222300Z AUTO 07005KT 9999 NCD 19/18 Q1014
  • 222230Z AUTO 07006KT 9999 NCD 19/18 Q1014
  • 222200Z 09004KT //// NSC 19/18 Q1014
  • 222130Z 00000KT //// NSC 19/18 Q1014
  • 222100Z 00000KT //// NSC 20/18 Q1014

TAF TAF LRTM
Valido dal 22 a 21 ore il 23 a 06 ore UTC


222000Z 2221/2306 VRB03KT CAVOK



MetMap, La meteo Aeronautica in un colpo d'occhio ! - Copyright ORBIFLY Dicembre 2007 - Disclaimer

ORBIFLY MET'MAP TEAM :

Programmazione e sviluppo : Alexandra Zaïnal
Concezione : Baudouin d'Aumeries
Supporto tecnico e logistico : Manuel Goepfert
Aiuto : Marc-Olivier Méhu
Aiuto per la traduzione : Arnaldo La Scala




FONTI E CREDITI :

   NOAA